HISTORICAL SENSOR DATA

Sensor Data Report

DB LIVE
CURRENT TIME--:--:--
DEVICE NETWORK Gateway Status
13 ESP · realtime ~1s · history 60s
Weather WS-MOD-01
ONLINE
Actuator ACT-MOD-01
OFFLINE
Mainboard L3 MB-L3-01
ONLINE
Mainboard L5 MB-L5-01
ONLINE
Remote AC AC-REMOTE-01
ONLINE
PZEM L3-01 PWR-L3-01
OFFLINE
PZEM L3-02 PWR-L3-02
OFFLINE
PZEM L3-03 PWR-L3-03
OFFLINE
PZEM L3-04 PWR-L3-04
OFFLINE
PZEM L5-01 PWR-L5-01
ONLINE
PZEM L5-02 PWR-L5-02
ONLINE
PZEM L5-03 PWR-L5-03
OFFLINE
PZEM L5-04 PWR-L5-04
OFFLINE
REPORT FILTER

Periode & Sensor

DATABASE HISTORY
RESET
QUICK RANGE Hari ini 7 hari 30 hari
PERIODE28 Aug 2026sampai 03 Sep 2026
TOTAL DATA40,294sensor readings
MINIMUM-0.50sesuai filter
AVERAGE56.76sesuai filter
MAXIMUM998.00sesuai filter
REPORT RESULT

Data Sensor

28/08/2026 — 03/09/2026 EXPORT CSV
NOTANGGALWAKTUDEVICECHANNELSENSORVALUEUNIT
11801 02/09/2026 14:54:45 MB-L5-01Mainboard Lantai 5 L5-LUX-03 Illuminance / LUX 3 205.30 lux
11802 02/09/2026 14:54:45 MB-L5-01Mainboard Lantai 5 L5-BGT-02 Black Globe Temperature 2 29.60 °C
11803 02/09/2026 14:54:45 MB-L5-01Mainboard Lantai 5 L5-BGT-01 Black Globe Temperature 1 29.70 °C
11804 02/09/2026 14:54:45 MB-L5-01Mainboard Lantai 5 L5-HFT-02 Heat Flow Temperature 2 30.10 °C
11805 02/09/2026 14:54:45 MB-L5-01Mainboard Lantai 5 L5-SHT-01-RH SHT20 1 Humidity 48.30 %RH
11806 02/09/2026 14:54:45 MB-L5-01Mainboard Lantai 5 L5-HFT-01 Heat Flow Temperature 1 30.10 °C
11807 02/09/2026 14:54:45 MB-L5-01Mainboard Lantai 5 L5-LUX-01 Illuminance / LUX 1 279.40 lux
11808 02/09/2026 14:54:45 MB-L5-01Mainboard Lantai 5 L5-LUX-06 Illuminance / LUX 6 305.30 lux
11809 02/09/2026 14:54:45 MB-L5-01Mainboard Lantai 5 L5-ST-02 Surface Temperature 2 30.30 °C
11810 02/09/2026 14:54:45 MB-L5-01Mainboard Lantai 5 L5-LUX-02 Illuminance / LUX 2 186.10 lux
11811 02/09/2026 14:54:45 MB-L5-01Mainboard Lantai 5 L5-ST-01 Surface Temperature 1 30.00 °C
11812 02/09/2026 14:54:45 MB-L5-01Mainboard Lantai 5 L5-RAD-02 Radiation 2 2.00 W/m²
11813 02/09/2026 14:54:45 MB-L5-01Mainboard Lantai 5 L5-AI-06 Analog Input 6 3.05 V
11814 02/09/2026 14:54:45 MB-L5-01Mainboard Lantai 5 L5-SHT-02-RH SHT20 2 Humidity 48.30 %RH
11815 02/09/2026 14:54:45 MB-L5-01Mainboard Lantai 5 L5-LUX-04 Illuminance / LUX 4 333.80 lux
11816 02/09/2026 14:54:45 MB-L5-01Mainboard Lantai 5 L5-AI-05 Analog Input 5 3.05 V
11817 02/09/2026 14:54:45 MB-L5-01Mainboard Lantai 5 L5-SHT-03-T SHT20 3 Temperature 32.10 °C
11818 02/09/2026 14:54:45 MB-L5-01Mainboard Lantai 5 L5-SHT-01-T SHT20 1 Temperature 32.30 °C
11819 02/09/2026 14:54:45 MB-L5-01Mainboard Lantai 5 L5-SHT-02-T SHT20 2 Temperature 32.20 °C
11820 02/09/2026 14:54:45 MB-L5-01Mainboard Lantai 5 L5-SHT-03-RH SHT20 3 Humidity 48.80 %RH
11821 02/09/2026 14:54:45 MB-L5-01Mainboard Lantai 5 L5-AI-04 Analog Input 4 3.05 V
11822 02/09/2026 14:54:45 MB-L5-01Mainboard Lantai 5 L5-RAD-01 Radiation 1 2.00 W/m²
11823 02/09/2026 14:54:45 MB-L5-01Mainboard Lantai 5 L5-AI-03 Analog Input 3 3.05 V
11824 02/09/2026 14:54:45 MB-L5-01Mainboard Lantai 5 L5-AI-02 Analog Input 2 3.05 V
11825 02/09/2026 14:54:44 MB-L3-01Mainboard Lantai 3 L3-HFT-01 Heat Flow Temperature 1 29.60 °C
11826 02/09/2026 14:54:44 MB-L3-01Mainboard Lantai 3 L3-AI-02 Analog Input 2 3.12 V
11827 02/09/2026 14:54:44 MB-L3-01Mainboard Lantai 3 L3-LUX-04 Illuminance / LUX 4 109.60 lux
11828 02/09/2026 14:54:44 MB-L3-01Mainboard Lantai 3 L3-HFT-02 Heat Flow Temperature 2 29.00 °C
11829 02/09/2026 14:54:44 MB-L3-01Mainboard Lantai 3 L3-SHT-01-T SHT20 1 Temperature 32.20 °C
11830 02/09/2026 14:54:44 MB-L3-01Mainboard Lantai 3 L3-LUX-02 Illuminance / LUX 2 55.60 lux
11831 02/09/2026 14:54:44 MB-L3-01Mainboard Lantai 3 L3-SHT-01-RH SHT20 1 Humidity 48.50 %RH
11832 02/09/2026 14:54:44 MB-L3-01Mainboard Lantai 3 L3-AI-03 Analog Input 3 3.12 V
11833 02/09/2026 14:54:44 MB-L3-01Mainboard Lantai 3 L3-SHT-02-RH SHT20 2 Humidity 48.20 %RH
11834 02/09/2026 14:54:44 MB-L3-01Mainboard Lantai 3 L3-BGT-01 Black Globe Temperature 1 29.60 °C
11835 02/09/2026 14:54:44 MB-L3-01Mainboard Lantai 3 L3-LUX-01 Illuminance / LUX 1 39.50 lux
11836 02/09/2026 14:54:44 MB-L3-01Mainboard Lantai 3 L3-RAD-02 Radiation 2 1.00 W/m²
11837 02/09/2026 14:54:44 MB-L3-01Mainboard Lantai 3 L3-LUX-03 Illuminance / LUX 3 148.40 lux
11838 02/09/2026 14:54:44 MB-L3-01Mainboard Lantai 3 L3-AI-04 Analog Input 4 3.12 V
11839 02/09/2026 14:54:44 MB-L3-01Mainboard Lantai 3 L3-BGT-02 Black Globe Temperature 2 29.70 °C
11840 02/09/2026 14:54:44 MB-L3-01Mainboard Lantai 3 L3-RAD-01 Radiation 1 2.00 W/m²
11841 02/09/2026 14:54:44 MB-L3-01Mainboard Lantai 3 L3-SHT-03-RH SHT20 3 Humidity 49.10 %RH
11842 02/09/2026 14:54:44 MB-L3-01Mainboard Lantai 3 L3-ST-01 Surface Temperature 1 29.80 °C
11843 02/09/2026 14:54:44 MB-L3-01Mainboard Lantai 3 L3-AI-05 Analog Input 5 3.12 V
11844 02/09/2026 14:54:44 MB-L3-01Mainboard Lantai 3 L3-SHT-03-T SHT20 3 Temperature 31.80 °C
11845 02/09/2026 14:54:44 MB-L3-01Mainboard Lantai 3 L3-SHT-02-T SHT20 2 Temperature 32.10 °C
11846 02/09/2026 14:54:44 MB-L3-01Mainboard Lantai 3 L3-BGT-03 Black Globe Temperature 3 29.20 °C
11847 02/09/2026 14:54:44 MB-L3-01Mainboard Lantai 3 L3-ST-02 Surface Temperature 2 30.10 °C
11848 02/09/2026 14:54:44 MB-L3-01Mainboard Lantai 3 L3-AI-06 Analog Input 6 3.12 V
11849 02/09/2026 14:54:44 MB-L3-01Mainboard Lantai 3 L3-LUX-06 Illuminance / LUX 6 41.40 lux
11850 02/09/2026 14:54:44 MB-L3-01Mainboard Lantai 3 L3-AI-01 Analog Input 1 3.12 V
11851 02/09/2026 14:54:43 MB-L5-01Mainboard Lantai 5 L5-LUX-03 Illuminance / LUX 3 211.60 lux
11852 02/09/2026 14:54:43 MB-L5-01Mainboard Lantai 5 L5-BGT-02 Black Globe Temperature 2 29.60 °C
11853 02/09/2026 14:54:43 MB-L5-01Mainboard Lantai 5 L5-BGT-01 Black Globe Temperature 1 29.70 °C
11854 02/09/2026 14:54:43 MB-L5-01Mainboard Lantai 5 L5-HFT-02 Heat Flow Temperature 2 30.10 °C
11855 02/09/2026 14:54:43 MB-L5-01Mainboard Lantai 5 L5-SHT-01-RH SHT20 1 Humidity 48.30 %RH
11856 02/09/2026 14:54:43 MB-L5-01Mainboard Lantai 5 L5-HFT-01 Heat Flow Temperature 1 30.10 °C
11857 02/09/2026 14:54:43 MB-L5-01Mainboard Lantai 5 L5-LUX-01 Illuminance / LUX 1 273.30 lux
11858 02/09/2026 14:54:43 MB-L5-01Mainboard Lantai 5 L5-LUX-06 Illuminance / LUX 6 311.30 lux
11859 02/09/2026 14:54:43 MB-L5-01Mainboard Lantai 5 L5-ST-02 Surface Temperature 2 30.20 °C
11860 02/09/2026 14:54:43 MB-L5-01Mainboard Lantai 5 L5-LUX-02 Illuminance / LUX 2 186.10 lux
11861 02/09/2026 14:54:43 MB-L5-01Mainboard Lantai 5 L5-ST-01 Surface Temperature 1 30.00 °C
11862 02/09/2026 14:54:43 MB-L5-01Mainboard Lantai 5 L5-RAD-02 Radiation 2 2.00 W/m²
11863 02/09/2026 14:54:43 MB-L5-01Mainboard Lantai 5 L5-AI-06 Analog Input 6 3.05 V
11864 02/09/2026 14:54:43 MB-L5-01Mainboard Lantai 5 L5-SHT-02-RH SHT20 2 Humidity 48.10 %RH
11865 02/09/2026 14:54:43 MB-L5-01Mainboard Lantai 5 L5-LUX-04 Illuminance / LUX 4 316.50 lux
11866 02/09/2026 14:54:43 MB-L5-01Mainboard Lantai 5 L5-AI-05 Analog Input 5 3.05 V
11867 02/09/2026 14:54:43 MB-L5-01Mainboard Lantai 5 L5-SHT-03-T SHT20 3 Temperature 32.10 °C
11868 02/09/2026 14:54:43 MB-L5-01Mainboard Lantai 5 L5-SHT-01-T SHT20 1 Temperature 32.30 °C
11869 02/09/2026 14:54:43 MB-L5-01Mainboard Lantai 5 L5-SHT-02-T SHT20 2 Temperature 32.20 °C
11870 02/09/2026 14:54:43 MB-L5-01Mainboard Lantai 5 L5-SHT-03-RH SHT20 3 Humidity 48.90 %RH
11871 02/09/2026 14:54:43 MB-L5-01Mainboard Lantai 5 L5-AI-04 Analog Input 4 3.05 V
11872 02/09/2026 14:54:43 MB-L5-01Mainboard Lantai 5 L5-RAD-01 Radiation 1 2.00 W/m²
11873 02/09/2026 14:54:43 MB-L5-01Mainboard Lantai 5 L5-AI-03 Analog Input 3 3.05 V
11874 02/09/2026 14:54:43 MB-L5-01Mainboard Lantai 5 L5-AI-02 Analog Input 2 3.05 V
11875 02/09/2026 14:54:43 MB-L5-01Mainboard Lantai 5 L5-AI-01 Analog Input 1 3.05 V
11876 02/09/2026 14:54:43 MB-L5-01Mainboard Lantai 5 L5-LUX-05 Illuminance / LUX 5 590.20 lux
11877 02/09/2026 14:54:43 MB-L5-01Mainboard Lantai 5 L5-BGT-03 Black Globe Temperature 3 29.70 °C
11878 02/09/2026 14:54:42 MB-L5-01Mainboard Lantai 5 L5-HFT-01 Heat Flow Temperature 1 30.10 °C
11879 02/09/2026 14:54:42 MB-L5-01Mainboard Lantai 5 L5-LUX-01 Illuminance / LUX 1 271.60 lux
11880 02/09/2026 14:54:42 MB-L5-01Mainboard Lantai 5 L5-LUX-06 Illuminance / LUX 6 309.60 lux
11881 02/09/2026 14:54:42 MB-L5-01Mainboard Lantai 5 L5-ST-02 Surface Temperature 2 30.20 °C
11882 02/09/2026 14:54:42 MB-L3-01Mainboard Lantai 3 L3-LUX-02 Illuminance / LUX 2 59.20 lux
11883 02/09/2026 14:54:42 MB-L3-01Mainboard Lantai 3 L3-SHT-01-RH SHT20 1 Humidity 48.50 %RH
11884 02/09/2026 14:54:42 MB-L3-01Mainboard Lantai 3 L3-AI-03 Analog Input 3 3.12 V
11885 02/09/2026 14:54:42 MB-L5-01Mainboard Lantai 5 L5-LUX-02 Illuminance / LUX 2 175.40 lux
11886 02/09/2026 14:54:42 MB-L5-01Mainboard Lantai 5 L5-ST-01 Surface Temperature 1 30.00 °C
11887 02/09/2026 14:54:42 MB-L3-01Mainboard Lantai 3 L3-SHT-02-RH SHT20 2 Humidity 48.20 %RH
11888 02/09/2026 14:54:42 MB-L3-01Mainboard Lantai 3 L3-BGT-01 Black Globe Temperature 1 29.60 °C
11889 02/09/2026 14:54:42 MB-L5-01Mainboard Lantai 5 L5-RAD-02 Radiation 2 2.00 W/m²
11890 02/09/2026 14:54:42 MB-L3-01Mainboard Lantai 3 L3-LUX-01 Illuminance / LUX 1 48.00 lux
11891 02/09/2026 14:54:42 MB-L3-01Mainboard Lantai 3 L3-RAD-02 Radiation 2 2.00 W/m²
11892 02/09/2026 14:54:42 MB-L5-01Mainboard Lantai 5 L5-AI-06 Analog Input 6 3.05 V
11893 02/09/2026 14:54:42 MB-L3-01Mainboard Lantai 3 L3-LUX-03 Illuminance / LUX 3 169.80 lux
11894 02/09/2026 14:54:42 MB-L5-01Mainboard Lantai 5 L5-SHT-02-RH SHT20 2 Humidity 48.30 %RH
11895 02/09/2026 14:54:42 MB-L3-01Mainboard Lantai 3 L3-AI-04 Analog Input 4 3.12 V
11896 02/09/2026 14:54:42 MB-L5-01Mainboard Lantai 5 L5-LUX-04 Illuminance / LUX 4 304.20 lux
11897 02/09/2026 14:54:42 MB-L3-01Mainboard Lantai 3 L3-BGT-02 Black Globe Temperature 2 29.70 °C
11898 02/09/2026 14:54:42 MB-L3-01Mainboard Lantai 3 L3-RAD-01 Radiation 1 2.00 W/m²
11899 02/09/2026 14:54:42 MB-L5-01Mainboard Lantai 5 L5-AI-05 Analog Input 5 3.05 V
11900 02/09/2026 14:54:42 MB-L5-01Mainboard Lantai 5 L5-SHT-03-T SHT20 3 Temperature 32.10 °C
Menampilkan maksimal 100 data per halaman